createdAt,value
2022-09-24T00:01:52.858Z,7.17
2022-09-24T00:04:21.146Z,7.16
2022-09-24T00:06:49.632Z,7.15
2022-09-24T00:09:22.181Z,7.13
2022-09-24T00:11:52.743Z,7.11
2022-09-24T00:14:21.025Z,7.12
2022-09-24T00:16:50.045Z,7.10
2022-09-24T00:19:19.359Z,7.07
2022-09-24T00:21:47.408Z,7.05
2022-09-24T00:24:37.917Z,7.02
2022-09-24T00:27:06.154Z,7.01
2022-09-24T00:29:35.829Z,7.00
2022-09-24T00:32:05.995Z,6.98
2022-09-24T00:34:35.519Z,6.96
2022-09-24T00:37:03.545Z,6.95
2022-09-24T00:39:31.573Z,6.92
2022-09-24T00:41:59.673Z,6.90
2022-09-24T00:44:55.742Z,6.85
2022-09-24T00:47:32.550Z,6.84
2022-09-24T00:50:09.011Z,6.81
2022-09-24T00:52:41.906Z,6.69
2022-09-24T00:55:10.824Z,6.62
2022-09-24T00:57:39.938Z,6.58
2022-09-24T01:00:09.318Z,6.52
2022-09-24T01:02:40.332Z,6.47
2022-09-24T01:05:10.957Z,6.43
2022-09-24T01:07:38.965Z,6.39
2022-09-24T01:10:08.086Z,6.39
2022-09-24T01:12:45.325Z,6.39
2022-09-24T01:15:23.104Z,6.41
2022-09-24T01:18:02.522Z,6.43
2022-09-24T01:20:52.848Z,6.44
2022-09-24T01:23:51.624Z,6.42
2022-09-24T01:26:36.043Z,6.42
2022-09-24T01:29:33.613Z,6.38
2022-09-24T01:32:07.526Z,6.35
2022-09-24T01:34:41.994Z,6.32
2022-09-24T01:37:10.632Z,6.29
2022-09-24T01:39:39.434Z,6.26
2022-09-24T01:42:11.093Z,6.23
2022-09-24T01:44:42.528Z,6.22
2022-09-24T01:47:12.747Z,6.21
2022-09-24T01:49:40.841Z,6.23
2022-09-24T01:52:14.015Z,6.25
2022-09-24T01:54:50.357Z,6.28
2022-09-24T01:57:22.278Z,6.30
2022-09-24T01:59:57.291Z,6.28
2022-09-24T02:02:28.880Z,6.26
2022-09-24T02:05:02.794Z,6.21
2022-09-24T02:07:36.304Z,6.15
2022-09-24T02:10:04.423Z,6.09
2022-09-24T02:12:37.978Z,6.05
2022-09-24T02:15:11.643Z,6.03
2022-09-24T02:17:42.939Z,6.02
2022-09-24T02:20:17.143Z,5.98
2022-09-24T02:22:46.935Z,5.98
2022-09-24T02:25:18.360Z,6.00
2022-09-24T02:27:46.405Z,6.05
2022-09-24T02:30:15.861Z,6.10
2022-09-24T02:32:45.705Z,6.16
2022-09-24T02:35:13.462Z,6.23
2022-09-24T02:37:43.694Z,6.28
2022-09-24T02:40:13.723Z,6.35
2022-09-24T02:42:43.517Z,6.43
2022-09-24T02:45:12.443Z,6.51
2022-09-24T02:47:41.877Z,6.58
2022-09-24T02:50:10.670Z,6.62
2022-09-24T02:52:38.649Z,6.65
2022-09-24T02:55:07.050Z,6.67
2022-09-24T02:57:35.415Z,6.72
2022-09-24T03:00:03.849Z,6.77
2022-09-24T03:02:32.098Z,6.80
2022-09-24T03:05:01.437Z,6.78
2022-09-24T03:07:29.390Z,6.80
2022-09-24T03:09:57.820Z,6.78
2022-09-24T03:12:25.796Z,6.78
2022-09-24T03:14:53.772Z,6.79
2022-09-24T03:17:21.727Z,6.79
2022-09-24T03:19:49.672Z,6.79
2022-09-24T03:22:18.992Z,6.82
2022-09-24T03:24:46.952Z,6.84
2022-09-24T03:27:15.016Z,6.86
2022-09-24T03:30:00.484Z,6.90
2022-09-24T03:32:28.326Z,6.98
2022-09-24T03:34:56.272Z,7.02
2022-09-24T03:37:25.571Z,7.08
2022-09-24T03:39:53.511Z,7.13
2022-09-24T03:42:21.454Z,7.08
2022-09-24T03:44:49.334Z,7.04
2022-09-24T03:47:17.296Z,6.97
2022-09-24T03:49:45.219Z,6.96
2022-09-24T03:52:13.147Z,6.96
2022-09-24T03:54:42.415Z,6.97
2022-09-24T03:57:10.408Z,6.98
2022-09-24T03:59:38.354Z,7.02
2022-09-24T04:02:06.290Z,7.04
2022-09-24T04:04:34.280Z,7.07
2022-09-24T04:07:02.406Z,7.11
2022-09-24T04:09:30.363Z,7.10
2022-09-24T04:12:00.164Z,7.09
2022-09-24T04:14:28.074Z,7.06
2022-09-24T04:16:56.044Z,7.06
2022-09-24T04:19:24.082Z,7.04
2022-09-24T04:21:52.059Z,7.02
2022-09-24T04:24:19.997Z,6.98
2022-09-24T04:26:48.224Z,6.97
2022-09-24T04:29:17.681Z,6.98
2022-09-24T04:31:46.169Z,7.01
2022-09-24T04:34:14.655Z,6.94
2022-09-24T04:36:42.592Z,6.88
2022-09-24T04:39:10.615Z,6.79
2022-09-24T04:41:40.140Z,6.72
2022-09-24T04:44:08.627Z,6.68
2022-09-24T04:46:38.158Z,6.82
2022-09-24T04:49:06.163Z,6.92
2022-09-24T04:51:34.346Z,7.19
2022-09-24T04:54:03.136Z,7.34
2022-09-24T04:56:31.297Z,7.28
2022-09-24T04:58:59.868Z,7.23
2022-09-24T05:01:28.293Z,7.16
2022-09-24T05:03:57.723Z,7.10
2022-09-24T05:06:25.819Z,7.05
2022-09-24T05:08:53.819Z,7.03
2022-09-24T05:11:21.793Z,7.08
2022-09-24T05:13:49.808Z,7.06
2022-09-24T05:16:17.784Z,7.07
2022-09-24T05:18:45.923Z,7.15
2022-09-24T05:21:15.758Z,7.26
2022-09-24T05:23:43.944Z,7.44
2022-09-24T05:26:29.276Z,7.66
2022-09-24T05:28:57.395Z,7.91
2022-09-24T05:31:25.470Z,8.01
2022-09-24T05:33:53.489Z,8.04
2022-09-24T05:36:23.000Z,8.06
2022-09-24T05:38:51.036Z,8.10
2022-09-24T05:41:19.111Z,8.15
2022-09-24T05:43:47.230Z,8.18
2022-09-24T05:46:15.383Z,8.24
2022-09-24T05:48:43.435Z,8.32
2022-09-24T05:51:11.575Z,8.43
2022-09-24T05:53:40.976Z,8.59
2022-09-24T05:56:10.349Z,8.66
2022-09-24T05:58:38.368Z,8.74
2022-09-24T06:01:06.488Z,8.79
2022-09-24T06:03:34.632Z,8.83
2022-09-24T06:06:03.004Z,8.86
2022-09-24T06:08:33.173Z,8.90
2022-09-24T06:11:03.559Z,8.96
2022-09-24T06:13:31.665Z,9.01
2022-09-24T06:16:02.822Z,9.08
2022-09-24T06:18:31.450Z,9.17
2022-09-24T06:21:03.647Z,9.16
2022-09-24T06:23:32.328Z,9.25
2022-09-24T06:26:00.713Z,9.32
2022-09-24T06:28:30.241Z,9.36
2022-09-24T06:31:00.888Z,9.37
2022-09-24T06:33:30.548Z,9.36
2022-09-24T06:36:01.823Z,9.38
2022-09-24T06:38:30.301Z,9.49
2022-09-24T06:41:01.529Z,9.53
2022-09-24T06:43:31.566Z,9.52
2022-09-24T06:46:00.555Z,9.52
2022-09-24T06:48:29.204Z,9.59
2022-09-24T06:50:57.429Z,9.75
2022-09-24T06:53:25.515Z,9.94
2022-09-24T06:55:54.533Z,10.08
2022-09-24T06:58:22.555Z,10.20
2022-09-24T07:00:58.419Z,10.23
2022-09-24T07:03:27.714Z,10.30
2022-09-24T07:05:56.192Z,10.41
2022-09-24T07:08:24.309Z,10.49
2022-09-24T07:10:52.572Z,10.56
2022-09-24T07:13:21.566Z,10.60
2022-09-24T07:15:51.462Z,10.64
2022-09-24T07:18:21.353Z,10.70
2022-09-24T07:20:53.637Z,10.71
2022-09-24T07:23:21.652Z,10.77
2022-09-24T07:25:50.591Z,10.87
2022-09-24T07:28:19.634Z,10.96
2022-09-24T07:30:47.590Z,11.02
2022-09-24T07:33:15.786Z,11.04
2022-09-24T07:35:45.174Z,11.16
2022-09-24T07:38:13.657Z,11.28
2022-09-24T07:40:42.590Z,11.32
2022-09-24T07:43:14.024Z,11.38
2022-09-24T07:45:43.101Z,11.58
2022-09-24T07:48:12.951Z,11.72
2022-09-24T07:50:43.130Z,11.91
2022-09-24T07:53:13.615Z,12.13
2022-09-24T07:55:43.059Z,12.17
2022-09-24T07:58:14.671Z,12.43
2022-09-24T08:00:43.060Z,12.48
2022-09-24T08:03:11.147Z,12.57
2022-09-24T08:05:44.303Z,12.63
2022-09-24T08:08:13.913Z,12.72
2022-09-24T08:10:43.108Z,12.82
2022-09-24T08:13:11.165Z,12.96
2022-09-24T08:15:39.199Z,13.11
2022-09-24T08:18:07.610Z,13.19
2022-09-24T08:20:37.368Z,13.29
2022-09-24T08:23:07.787Z,13.38
2022-09-24T08:25:37.208Z,13.54
2022-09-24T08:28:06.265Z,13.68
2022-09-24T08:30:35.595Z,13.83
2022-09-24T08:33:06.752Z,13.98
2022-09-24T08:35:35.368Z,14.05
2022-09-24T08:38:03.620Z,14.15
2022-09-24T08:40:37.356Z,14.30
2022-09-24T08:43:18.035Z,14.45
2022-09-24T08:46:08.150Z,14.60
2022-09-24T08:48:40.299Z,14.79
2022-09-24T08:51:15.176Z,14.92
2022-09-24T08:53:46.461Z,15.07
2022-09-24T08:56:15.565Z,15.20
2022-09-24T08:58:53.473Z,15.35
2022-09-24T09:01:32.745Z,15.50
2022-09-24T09:04:06.242Z,15.71
2022-09-24T09:06:54.804Z,15.77
2022-09-24T09:09:25.434Z,15.84
2022-09-24T09:12:00.332Z,15.97
2022-09-24T09:14:41.643Z,16.19
2022-09-24T09:17:21.042Z,16.43
2022-09-24T09:19:56.670Z,16.61
2022-09-24T09:22:29.356Z,16.78
2022-09-24T09:25:03.926Z,16.86
2022-09-24T09:27:32.964Z,16.97
2022-09-24T09:30:10.419Z,17.12
2022-09-24T09:33:05.166Z,17.35
2022-09-24T09:35:45.709Z,17.48
2022-09-24T09:38:23.538Z,17.55
2022-09-24T09:41:00.673Z,17.66
2022-09-24T09:43:29.137Z,17.77
2022-09-24T09:46:10.813Z,17.91
2022-09-24T09:48:45.643Z,18.09
2022-09-24T09:51:22.779Z,18.22
2022-09-24T09:53:58.690Z,18.33
2022-09-24T09:56:29.174Z,18.42
2022-09-24T09:59:07.094Z,18.53
2022-09-24T10:01:40.713Z,18.60
2022-09-24T10:04:28.634Z,18.72
2022-09-24T10:07:06.124Z,18.92
2022-09-24T10:09:34.590Z,19.22
2022-09-24T10:12:17.696Z,19.49
2022-09-24T10:14:57.421Z,19.78
2022-09-24T10:17:30.814Z,19.98
2022-09-24T10:20:01.025Z,20.14
2022-09-24T10:22:30.313Z,20.14
2022-09-24T10:25:01.878Z,20.25
2022-09-24T10:27:34.023Z,20.37
2022-09-24T10:30:21.835Z,20.58
2022-09-24T10:32:58.113Z,20.89
2022-09-24T10:35:29.691Z,20.98
2022-09-24T10:37:59.271Z,21.10
2022-09-24T10:40:31.242Z,21.24
2022-09-24T10:43:01.971Z,21.37
2022-09-24T10:45:58.412Z,21.57
2022-09-24T10:48:35.630Z,21.69
2022-09-24T10:51:12.887Z,21.72
2022-09-24T10:53:53.364Z,21.80
2022-09-24T10:56:31.869Z,21.92
2022-09-24T10:59:29.446Z,21.66
2022-09-24T11:02:15.394Z,21.35
2022-09-24T11:04:51.815Z,21.29
2022-09-24T11:07:40.509Z,21.30
2022-09-24T11:10:23.050Z,21.14
2022-09-24T11:13:01.052Z,21.06
2022-09-24T11:15:53.487Z,21.08
2022-09-24T11:18:36.607Z,21.14
2022-09-24T11:21:24.706Z,21.26
2022-09-24T11:24:09.952Z,21.31
2022-09-24T11:26:55.745Z,21.40
2022-09-24T11:29:37.333Z,21.51
2022-09-24T11:32:15.031Z,21.54
2022-09-24T11:34:59.643Z,21.42
2022-09-24T11:37:46.154Z,21.37
2022-09-24T11:40:31.054Z,21.35
2022-09-24T11:43:15.921Z,21.46
2022-09-24T11:45:59.154Z,21.55
2022-09-24T11:48:50.608Z,21.59
2022-09-24T11:51:29.429Z,21.65
2022-09-24T11:54:05.242Z,21.73
2022-09-24T11:56:37.469Z,21.86
2022-09-24T11:59:18.011Z,22.01
2022-09-24T12:01:53.109Z,22.18
2022-09-24T12:04:27.344Z,22.36
2022-09-24T12:07:00.363Z,22.50
2022-09-24T12:09:35.329Z,22.47
2022-09-24T12:12:09.517Z,22.52
2022-09-24T12:14:46.746Z,22.60
2022-09-24T12:17:20.088Z,22.76
2022-09-24T12:19:54.663Z,22.81
2022-09-24T12:22:24.281Z,22.87
2022-09-24T12:24:58.667Z,22.94
2022-09-24T12:27:34.359Z,23.08
2022-09-24T12:30:39.954Z,23.30
2022-09-24T12:33:13.878Z,23.68
2022-09-24T12:35:54.066Z,24.08
2022-09-24T12:38:27.235Z,24.55
2022-09-24T12:41:19.991Z,25.26
2022-09-24T12:43:54.664Z,25.99
2022-09-24T12:46:25.632Z,26.92
2022-09-24T12:48:55.723Z,28.32
2022-09-24T12:51:24.472Z,29.82
2022-09-24T12:54:01.301Z,30.97
2022-09-24T12:56:31.821Z,32.14
2022-09-24T12:58:59.987Z,32.56
2022-09-24T13:01:31.185Z,33.44
2022-09-24T13:04:05.950Z,35.13
2022-09-24T13:06:36.364Z,36.29
2022-09-24T13:09:05.814Z,37.09
2022-09-24T13:11:37.665Z,38.19
2022-09-24T13:14:19.552Z,39.01
2022-09-24T13:16:50.809Z,38.93
2022-09-24T13:19:29.764Z,38.93
2022-09-24T13:22:00.240Z,39.82
2022-09-24T13:24:30.512Z,40.77
2022-09-24T13:27:21.908Z,41.63
2022-09-24T13:30:03.310Z,41.73
2022-09-24T13:32:35.651Z,42.11
2022-09-24T13:35:08.528Z,42.70
2022-09-24T13:37:41.288Z,43.47
2022-09-24T13:40:19.369Z,44.06
2022-09-24T13:42:53.851Z,44.32
2022-09-24T13:45:23.895Z,44.14
2022-09-24T13:47:56.191Z,43.78
2022-09-24T13:50:27.272Z,43.07
2022-09-24T13:52:59.017Z,41.94
2022-09-24T13:55:32.749Z,41.11
2022-09-24T13:58:02.244Z,40.99
2022-09-24T14:00:32.351Z,41.27
2022-09-24T14:03:04.013Z,41.49
2022-09-24T14:05:35.533Z,41.22
2022-09-24T14:08:06.316Z,41.27
2022-09-24T14:10:36.136Z,41.59
2022-09-24T14:13:15.614Z,41.36
2022-09-24T14:15:55.045Z,40.20
2022-09-24T14:18:23.753Z,39.54
2022-09-24T14:20:58.739Z,38.70
2022-09-24T14:23:32.478Z,37.20
2022-09-24T14:26:02.061Z,35.55
2022-09-24T14:28:33.089Z,34.63
2022-09-24T14:31:02.137Z,33.95
2022-09-24T14:33:34.214Z,33.91
2022-09-24T14:36:04.355Z,33.81
2022-09-24T14:38:36.055Z,33.37
2022-09-24T14:41:08.920Z,32.69
2022-09-24T14:43:45.787Z,32.23
2022-09-24T14:46:19.832Z,31.79
2022-09-24T14:48:47.647Z,31.74
2022-09-24T14:51:30.325Z,31.55
2022-09-24T14:54:00.100Z,31.84
2022-09-24T14:56:30.292Z,32.31
2022-09-24T14:59:00.616Z,32.61
2022-09-24T15:01:33.203Z,33.19
2022-09-24T15:04:03.694Z,33.57
2022-09-24T15:06:34.093Z,33.39
2022-09-24T15:09:05.123Z,33.24
2022-09-24T15:11:35.482Z,32.28
2022-09-24T15:14:25.143Z,32.11
2022-09-24T15:16:54.074Z,32.14
2022-09-24T15:19:23.338Z,32.14
2022-09-24T15:21:52.721Z,31.84
2022-09-24T15:24:22.085Z,31.14
2022-09-24T15:27:00.862Z,30.41
2022-09-24T15:29:30.323Z,29.50
2022-09-24T15:31:59.514Z,28.34
2022-09-24T15:34:30.538Z,27.50
2022-09-24T15:37:00.683Z,27.00
2022-09-24T15:39:29.967Z,26.71
2022-09-24T15:42:00.771Z,26.17
2022-09-24T15:44:34.052Z,25.40
2022-09-24T15:47:02.310Z,24.62
2022-09-24T15:49:30.278Z,23.88
2022-09-24T15:52:02.787Z,23.03
2022-09-24T15:54:30.805Z,22.26
2022-09-24T15:56:58.902Z,21.55
2022-09-24T15:59:28.318Z,20.89
2022-09-24T16:02:02.089Z,20.21
2022-09-24T16:04:30.394Z,19.52
2022-09-24T16:06:59.126Z,18.88
2022-09-24T16:09:27.057Z,18.33
2022-09-24T16:11:55.478Z,17.84
2022-09-24T16:14:23.440Z,17.46
2022-09-24T16:16:51.480Z,17.14
2022-09-24T16:19:20.787Z,16.82
2022-09-24T16:21:49.183Z,16.56
2022-09-24T16:24:17.074Z,16.32
2022-09-24T16:26:45.071Z,16.11
2022-09-24T16:29:13.152Z,15.91
2022-09-24T16:31:41.390Z,15.74
2022-09-24T16:34:09.553Z,15.56
2022-09-24T16:36:39.041Z,15.38
2022-09-24T16:39:07.021Z,15.22
2022-09-24T16:41:37.123Z,15.11
2022-09-24T16:44:05.668Z,14.96
2022-09-24T16:46:33.772Z,14.84
2022-09-24T16:49:01.810Z,14.70
2022-09-24T16:51:29.791Z,14.59
2022-09-24T16:53:59.195Z,14.45
2022-09-24T16:56:27.288Z,14.35
2022-09-24T16:58:55.233Z,14.25
2022-09-24T17:01:23.968Z,14.20
2022-09-24T17:03:53.132Z,14.20
2022-09-24T17:06:23.114Z,14.18
2022-09-24T17:09:08.934Z,14.15
2022-09-24T17:11:40.205Z,14.13
2022-09-24T17:14:08.810Z,14.12
2022-09-24T17:16:36.773Z,14.09
2022-09-24T17:19:04.805Z,14.08
2022-09-24T17:21:32.834Z,14.02
2022-09-24T17:24:00.803Z,13.95
2022-09-24T17:26:28.858Z,13.86
2022-09-24T17:28:58.379Z,13.78
2022-09-24T17:31:27.053Z,13.76
2022-09-24T17:33:58.531Z,13.76
2022-09-24T17:36:28.310Z,13.76
2022-09-24T17:38:57.131Z,13.75
2022-09-24T17:41:25.166Z,13.70
2022-09-24T17:43:53.805Z,13.66
2022-09-24T17:46:23.773Z,13.56
2022-09-24T17:48:55.203Z,13.52
2022-09-24T17:51:25.207Z,13.47
2022-09-24T17:53:55.199Z,13.44
2022-09-24T17:56:25.402Z,13.39
2022-09-24T17:58:53.535Z,13.35
2022-09-24T18:01:25.191Z,13.31
2022-09-24T18:03:54.955Z,13.27
2022-09-24T18:06:27.137Z,13.21
2022-09-24T18:08:58.137Z,13.15
2022-09-24T18:11:27.772Z,13.11
2022-09-24T18:13:57.125Z,13.04
2022-09-24T18:16:27.943Z,12.99
2022-09-24T18:18:56.003Z,12.92
2022-09-24T18:21:25.389Z,12.88
2022-09-24T18:23:54.745Z,12.84
2022-09-24T18:26:24.356Z,12.77
2022-09-24T18:28:54.537Z,12.72
2022-09-24T18:31:24.490Z,12.68
2022-09-24T18:33:54.846Z,12.65
2022-09-24T18:36:25.640Z,12.62
2022-09-24T18:38:54.502Z,12.57
2022-09-24T18:41:24.041Z,12.53
2022-09-24T18:43:53.176Z,12.50
2022-09-24T18:46:23.263Z,12.47
2022-09-24T18:48:56.798Z,12.42
2022-09-24T18:51:26.655Z,12.39
2022-09-24T18:53:56.291Z,12.36
2022-09-24T18:56:25.237Z,12.36
2022-09-24T18:58:56.870Z,12.36
2022-09-24T19:01:25.425Z,12.36
2022-09-24T19:03:55.146Z,12.38
2022-09-24T19:06:23.338Z,12.36
2022-09-24T19:08:51.355Z,12.35
2022-09-24T19:11:19.853Z,12.34
2022-09-24T19:13:50.580Z,12.32
2022-09-24T19:16:20.057Z,12.31
2022-09-24T19:18:48.082Z,12.28
2022-09-24T19:21:18.191Z,12.22
2022-09-24T19:23:48.437Z,12.19
2022-09-24T19:26:19.408Z,12.14
2022-09-24T19:28:50.605Z,12.12
2022-09-24T19:31:22.101Z,12.10
2022-09-24T19:33:51.091Z,12.08
2022-09-24T19:36:21.542Z,12.05
2022-09-24T19:38:50.218Z,11.99
2022-09-24T19:41:21.588Z,11.96
2022-09-24T19:43:50.916Z,11.93
2022-09-24T19:46:20.258Z,11.87
2022-09-24T19:48:50.174Z,11.86
2022-09-24T19:51:21.272Z,11.83
2022-09-24T19:53:50.779Z,11.79
2022-09-24T19:56:22.712Z,11.75
2022-09-24T19:58:52.794Z,11.72
2022-09-24T20:01:21.764Z,11.69
2022-09-24T20:03:50.217Z,11.68
2022-09-24T20:06:22.665Z,11.66
2022-09-24T20:08:51.308Z,11.65
2022-09-24T20:11:22.213Z,11.61
2022-09-24T20:13:51.018Z,11.57
2022-09-24T20:16:20.874Z,11.54
2022-09-24T20:18:49.561Z,11.54
2022-09-24T20:21:19.171Z,11.54
2022-09-24T20:23:49.731Z,11.53
2022-09-24T20:26:50.470Z,11.51
2022-09-24T20:29:19.701Z,11.46
2022-09-24T20:31:52.082Z,11.47
2022-09-24T20:34:21.564Z,11.46
2022-09-24T20:36:50.764Z,11.42
2022-09-24T20:39:20.690Z,11.31
2022-09-24T20:41:49.527Z,11.28
2022-09-24T20:44:17.790Z,11.27
2022-09-24T20:46:46.196Z,11.26
2022-09-24T20:49:22.415Z,11.27
2022-09-24T20:51:56.334Z,11.24
2022-09-24T20:54:28.405Z,11.23
2022-09-24T20:56:56.645Z,11.22
2022-09-24T20:59:25.701Z,11.21
2022-09-24T21:01:53.875Z,11.22
2022-09-24T21:04:22.457Z,11.20
2022-09-24T21:06:50.838Z,11.21
2022-09-24T21:09:19.001Z,11.19
2022-09-24T21:11:50.215Z,11.17
2022-09-24T21:14:18.640Z,11.12
2022-09-24T21:16:46.790Z,11.08
2022-09-24T21:19:15.913Z,11.08
2022-09-24T21:21:43.906Z,11.05
2022-09-24T21:24:14.538Z,10.97
2022-09-24T21:26:45.159Z,10.92
2022-09-24T21:29:17.526Z,10.90
2022-09-24T21:31:47.016Z,10.90
2022-09-24T21:34:16.432Z,10.88
2022-09-24T21:36:45.915Z,10.87
2022-09-24T21:39:16.797Z,10.87
2022-09-24T21:41:48.216Z,10.85
2022-09-24T21:44:19.304Z,10.85
2022-09-24T21:46:47.719Z,10.84
2022-09-24T21:49:17.358Z,10.85
2022-09-24T21:51:46.059Z,10.85
2022-09-24T21:54:16.245Z,10.85
2022-09-24T21:56:44.666Z,10.85
2022-09-24T21:59:26.620Z,10.79
2022-09-24T22:01:56.933Z,10.74
2022-09-24T22:04:24.876Z,10.68
2022-09-24T22:06:53.060Z,10.64
2022-09-24T22:09:21.707Z,10.62
2022-09-24T22:11:51.599Z,10.60
2022-09-24T22:14:19.680Z,10.57
2022-09-24T22:16:47.756Z,10.54
2022-09-24T22:19:17.215Z,10.51
2022-09-24T22:21:45.619Z,10.43
2022-09-24T22:24:13.653Z,10.40
2022-09-24T22:26:41.625Z,10.35
2022-09-24T22:29:09.653Z,10.30
2022-09-24T22:31:37.639Z,10.22
2022-09-24T22:34:23.355Z,10.15
2022-09-24T22:36:53.201Z,10.05
2022-09-24T22:39:21.375Z,9.99
2022-09-24T22:41:49.386Z,9.95
2022-09-24T22:44:17.383Z,9.93
2022-09-24T22:46:45.312Z,9.91
2022-09-24T22:49:13.311Z,9.89
2022-09-24T22:51:41.384Z,9.85
2022-09-24T22:54:11.079Z,9.84
2022-09-24T22:56:39.322Z,9.84
2022-09-24T22:59:07.799Z,9.83
2022-09-24T23:01:40.073Z,9.84
2022-09-24T23:04:08.310Z,9.84
2022-09-24T23:06:37.290Z,9.80
2022-09-24T23:09:05.712Z,9.78
2022-09-24T23:11:36.400Z,9.72
2022-09-24T23:14:07.444Z,9.69
2022-09-24T23:16:37.303Z,9.63
2022-09-24T23:19:07.828Z,9.55
2022-09-24T23:21:36.983Z,9.50
2022-09-24T23:24:07.362Z,9.43
2022-09-24T23:26:37.221Z,9.36
2022-09-24T23:29:05.703Z,9.31
2022-09-24T23:31:37.061Z,9.22
2022-09-24T23:34:07.016Z,9.15
2022-09-24T23:36:35.672Z,9.09
2022-09-24T23:39:04.844Z,9.03
2022-09-24T23:41:32.896Z,9.01
2022-09-24T23:44:02.655Z,8.98
2022-09-24T23:46:33.912Z,8.95
2022-09-24T23:49:02.213Z,8.92
2022-09-24T23:51:30.396Z,8.91
2022-09-24T23:53:58.588Z,8.91
2022-09-24T23:56:26.663Z,8.94
2022-09-24T23:58:55.031Z,8.94
